Time;durP1;ratioP1;P1;durP2;ratioP2;P2;SDS_P1;SDS_P2;PMS_P1;PMS_P2;Temp;Humidity;BMP_temperature;BMP_pressure;BME280_temperature;BME280_humidity;BME280_pressure;Samples;Min_cycle;Max_cycle;Signal;HPM_P1;HPM_P2
2023/11/16 00:01:21;;;;;;;1.70;1.00;;;;;;;8.30;100.00;100353.52;105348;1259;73882;-53
2023/11/16 00:03:51;;;;;;;1.30;0.90;;;;;;;8.31;100.00;100356.02;105356;1253;66832;-57
2023/11/16 00:06:19;;;;;;;1.20;1.10;;;;;;;8.32;100.00;100362.79;105181;1256;71473;-57
2023/11/16 00:08:46;;;;;;;3.60;1.00;;;;;;;8.33;100.00;100362.41;105854;1257;60543;-53
2023/11/16 00:11:15;;;;;;;1.10;1.00;;;;;;;8.33;100.00;100360.79;105475;1253;60366;-56
2023/11/16 00:13:44;;;;;;;1.80;0.90;;;;;;;8.34;100.00;100364.16;105137;1253;72637;-54
2023/11/16 00:16:12;;;;;;;2.90;1.00;;;;;;;8.35;100.00;100363.04;108836;1253;65862;-52
2023/11/16 00:18:41;;;;;;;5.00;1.20;;;;;;;8.37;100.00;100366.77;108892;1253;70409;-53
2023/11/16 00:21:09;;;;;;;2.00;0.80;;;;;;;8.37;100.00;100366.75;108865;1254;61728;-58
2023/11/16 00:23:36;;;;;;;2.60;0.80;;;;;;;8.38;100.00;100372.98;109034;1252;60098;-57
2023/11/16 00:26:04;;;;;;;3.10;0.80;;;;;;;8.40;100.00;100372.58;109072;1253;72694;-52
2023/11/16 00:28:31;;;;;;;3.70;0.90;;;;;;;8.41;100.00;100378.10;108944;1254;65576;-52
2023/11/16 00:30:58;;;;;;;3.70;1.00;;;;;;;8.43;100.00;100383.41;109003;1253;72818;-53
2023/11/16 00:33:26;;;;;;;3.80;1.00;;;;;;;8.43;100.00;100386.41;108093;1255;60546;-54
2023/11/16 00:35:55;;;;;;;2.90;1.10;;;;;;;8.44;100.00;100392.29;106446;1256;60974;-57
2023/11/16 00:38:25;;;;;;;6.70;1.30;;;;;;;8.46;100.00;100392.25;105422;1255;71936;-49
2023/11/16 00:40:56;;;;;;;3.90;1.00;;;;;;;8.46;100.00;100392.23;105450;1259;67814;-50
2023/11/16 00:43:27;;;;;;;2.90;1.20;;;;;;;8.47;100.00;100396.34;105422;1254;71550;-51
2023/11/16 00:45:54;;;;;;;3.00;1.10;;;;;;;8.48;100.00;100400.96;105419;1254;61623;-57
2023/11/16 00:48:24;;;;;;;1.40;1.30;;;;;;;8.48;100.00;100402.02;108953;1254;58851;-54
2023/11/16 00:50:51;;;;;;;2.50;1.10;;;;;;;8.49;100.00;100400.40;109086;1254;73880;-54
2023/11/16 00:53:19;;;;;;;1.80;0.90;;;;;;;8.50;100.00;100403.41;108979;1254;67138;-56
2023/11/16 00:55:49;;;;;;;3.20;0.90;;;;;;;8.50;100.00;100405.54;108885;1254;72704;-56
2023/11/16 00:58:19;;;;;;;3.10;0.90;;;;;;;8.51;100.00;100411.23;108992;1254;60654;-57
2023/11/16 01:00:51;;;;;;;1.20;0.70;;;;;;;8.51;100.00;100415.68;108973;1253;59113;-56
2023/11/16 01:03:19;;;;;;;2.20;1.00;;;;;;;8.52;100.00;100413.88;108996;1254;72650;-56
2023/11/16 01:05:46;;;;;;;1.30;1.00;;;;;;;8.54;100.00;100415.80;107060;1256;66704;-54
2023/11/16 01:08:16;;;;;;;2.90;0.80;;;;;;;8.54;100.00;100414.90;105541;1256;72947;-57
2023/11/16 01:10:43;;;;;;;0.90;0.80;;;;;;;8.54;100.00;100419.73;108949;1254;62525;-52
2023/11/16 01:13:11;;;;;;;1.70;0.90;;;;;;;8.55;100.00;100415.41;107749;1258;60719;-53
2023/11/16 01:15:38;;;;;;;1.50;0.90;;;;;;;8.56;100.00;100418.79;106203;1254;77062;-50
2023/11/16 01:18:12;;;;;;;1.60;1.00;;;;;;;8.56;100.00;100422.55;105646;1256;67911;-53
2023/11/16 01:20:40;;;;;;;2.60;0.90;;;;;;;8.56;100.00;100433.45;105388;1259;72184;-53
2023/11/16 01:23:16;;;;;;;2.70;0.80;;;;;;;8.56;100.00;100431.66;105661;1254;60549;-57
2023/11/16 01:25:51;;;;;;;2.90;0.80;;;;;;;8.56;100.00;100440.25;107295;1254;60347;-53
2023/11/16 01:28:20;;;;;;;1.40;0.80;;;;;;;8.55;100.00;100435.98;106505;1254;73744;-53
2023/11/16 01:30:48;;;;;;;1.90;0.80;;;;;;;8.52;100.00;100435.15;105683;1254;66345;-57
2023/11/16 01:33:15;;;;;;;1.30;0.90;;;;;;;8.50;100.00;100429.33;105324;1259;71451;-54
2023/11/16 01:35:44;;;;;;;1.20;0.90;;;;;;;8.50;100.00;100430.25;103738;1253;3504725;-52
2023/11/16 01:39:07;;;;;;;1.60;0.90;;;;;;;8.47;100.00;100482.35;102722;1285;600475;-54
2023/11/16 01:41:35;;;;;;;2.10;0.90;;;;;;;8.48;100.00;100594.33;104977;1265;60137;-56
2023/11/16 01:44:03;;;;;;;1.00;0.90;;;;;;;8.47;100.00;100564.27;104499;1266;60308;-55
2023/11/16 01:46:31;;;;;;;1.80;0.90;;;;;;;8.48;100.00;100546.92;104532;1266;72019;-55
2023/11/16 01:48:59;;;;;;;1.30;1.00;;;;;;;8.47;100.00;100533.18;104438;1271;70763;-56
2023/11/16 01:51:27;;;;;;;1.20;1.00;;;;;;;8.45;100.00;100521.95;104627;1271;72094;-54
2023/11/16 01:53:56;;;;;;;1.90;1.00;;;;;;;8.43;100.00;100511.98;102189;1265;3296230;-55
2023/11/16 01:56:29;;;;;;;0.90;0.80;;;;;;;8.42;100.00;100504.69;104711;1264;60115;-56
2023/11/16 01:59:03;;;;;;;1.80;0.90;;;;;;;8.41;100.00;100506.69;104820;1271;73422;-52
2023/11/16 02:01:31;;;;;;;1.50;1.00;;;;;;;8.39;100.00;100499.76;105327;1256;66474;-52
2023/11/16 02:04:03;;;;;;;1.40;0.90;;;;;;;8.39;100.00;100489.76;105979;1257;72722;-53
2023/11/16 02:06:34;;;;;;;1.50;1.10;;;;;;;8.39;100.00;100495.48;106240;1262;61886;-52
2023/11/16 02:09:02;;;;;;;1.60;1.10;;;;;;;8.39;100.00;100490.46;105004;1259;60523;-51
2023/11/16 02:11:30;;;;;;;2.20;0.90;;;;;;;8.37;100.00;100482.83;105209;1260;71617;-50
2023/11/16 02:13:58;;;;;;;1.30;0.90;;;;;;;8.36;100.00;100478.19;105941;1262;67099;-56
2023/11/16 02:16:25;;;;;;;1.80;0.90;;;;;;;8.36;100.00;100473.54;105116;1262;71401;-52
2023/11/16 02:18:53;;;;;;;1.50;0.80;;;;;;;8.37;100.00;100475.84;105884;1262;60483;-53
2023/11/16 02:21:21;;;;;;;1.70;0.90;;;;;;;8.36;100.00;100469.42;105201;1259;60013;-56
2023/11/16 02:23:49;;;;;;;1.40;0.80;;;;;;;8.36;100.00;100472.46;106935;1259;73646;-55
2023/11/16 02:26:18;;;;;;;1.50;0.80;;;;;;;8.35;100.00;100468.90;104894;1263;67447;-58
2023/11/16 02:28:45;;;;;;;2.60;0.80;;;;;;;8.35;100.00;100473.02;105075;1257;73662;-56
2023/11/16 02:31:18;;;;;;;0.90;0.80;;;;;;;8.35;100.00;100468.73;105175;1262;60463;-56
2023/11/16 02:33:46;;;;;;;1.10;0.70;;;;;;;8.34;100.00;100469.65;104987;1259;60108;-55
2023/11/16 02:36:13;;;;;;;2.70;0.70;;;;;;;8.34;100.00;100469.13;105039;1257;72985;-56
2023/11/16 02:38:40;;;;;;;1.60;0.80;;;;;;;8.34;100.00;100470.55;105139;1261;67674;-52
2023/11/16 02:41:09;;;;;;;1.00;0.90;;;;;;;8.34;100.00;100471.96;105056;1257;71087;-54
2023/11/16 02:43:37;;;;;;;2.70;0.80;;;;;;;8.34;100.00;100476.43;105304;1259;60568;-52
2023/11/16 02:46:04;;;;;;;1.00;0.70;;;;;;;8.34;100.00;100479.13;104974;1261;59508;-52
2023/11/16 02:48:31;;;;;;;3.20;0.80;;;;;;;8.34;100.00;100482.19;104977;1262;72995;-54
2023/11/16 02:50:59;;;;;;;0.70;0.70;;;;;;;8.32;100.00;100481.52;104923;1264;65738;-52
2023/11/16 02:53:27;;;;;;;1.00;0.70;;;;;;;8.32;100.00;100484.77;105041;1262;72266;-51
2023/11/16 02:55:54;;;;;;;1.10;0.70;;;;;;;8.31;100.00;100484.41;104975;1261;61767;-54
2023/11/16 02:58:22;;;;;;;1.80;0.80;;;;;;;8.30;100.00;100480.66;105057;1257;59871;-54
2023/11/16 03:00:50;;;;;;;1.40;1.30;;;;;;;8.29;100.00;100481.20;105060;1259;73129;-52
2023/11/16 03:03:18;;;;;;;2.10;1.10;;;;;;;8.27;100.00;100481.42;105050;1263;66767;-52
2023/11/16 03:05:47;;;;;;;2.40;1.30;;;;;;;8.26;100.00;100481.28;105531;1260;71463;-57
2023/11/16 03:08:15;;;;;;;3.50;2.30;;;;;;;8.25;100.00;100486.52;105043;1265;61754;-51
2023/11/16 03:10:43;;;;;;;6.00;3.20;;;;;;;8.24;100.00;100494.61;105352;1254;60149;-58
2023/11/16 03:13:15;;;;;;;3.60;2.20;;;;;;;8.22;100.00;100494.84;105310;1257;71781;-53
2023/11/16 03:15:43;;;;;;;4.60;1.60;;;;;;;8.22;100.00;100512.35;105307;1260;65534;-57
2023/11/16 03:18:14;;;;;;;2.50;1.80;;;;;;;8.21;100.00;100514.68;108929;1254;72686;-57
2023/11/16 03:20:43;;;;;;;2.10;0.90;;;;;;;8.22;100.00;100525.58;108882;1255;61809;-54
2023/11/16 03:23:10;;;;;;;2.60;0.80;;;;;;;8.22;100.00;100525.40;108259;1256;59699;-51
2023/11/16 03:25:39;;;;;;;1.20;0.80;;;;;;;8.22;100.00;100518.77;105122;1258;73150;-52
2023/11/16 03:28:06;;;;;;;1.40;0.70;;;;;;;8.22;100.00;100517.35;108826;1254;67123;-55
2023/11/16 03:30:34;;;;;;;2.10;0.80;;;;;;;8.22;100.00;100520.92;108895;1256;72465;-53
2023/11/16 03:33:01;;;;;;;1.00;0.70;;;;;;;8.22;100.00;100518.96;108957;1255;63694;-53
2023/11/16 03:35:29;;;;;;;1.10;0.80;;;;;;;8.22;100.00;100517.89;108830;1257;59165;-51
2023/11/16 03:37:57;;;;;;;0.90;0.80;;;;;;;8.22;100.00;100514.67;108885;1253;72942;-55
2023/11/16 03:40:24;;;;;;;1.00;0.80;;;;;;;8.22;100.00;100519.13;108953;1256;67364;-54
2023/11/16 03:42:52;;;;;;;2.10;0.60;;;;;;;8.23;100.00;100513.58;108827;1256;71194;-55
2023/11/16 03:45:19;;;;;;;1.20;0.80;;;;;;;8.23;100.00;100514.65;108864;1256;61098;-55
2023/11/16 03:47:48;;;;;;;1.40;0.90;;;;;;;8.24;100.00;100513.73;108881;1257;60079;-54
2023/11/16 03:50:16;;;;;;;1.90;1.00;;;;;;;8.26;100.00;100510.09;108910;1256;72243;-54
2023/11/16 03:52:45;;;;;;;3.20;1.00;;;;;;;8.27;100.00;100510.22;108853;1256;66990;-54
2023/11/16 03:55:12;;;;;;;2.30;0.70;;;;;;;8.28;100.00;100514.67;108928;1256;72704;-55
2023/11/16 03:57:40;;;;;;;1.60;0.80;;;;;;;8.28;100.00;100518.60;108878;1255;61106;-57
2023/11/16 04:00:09;;;;;;;2.50;1.10;;;;;;;8.29;100.00;100518.75;107783;1259;60941;-53
2023/11/16 04:02:40;;;;;;;1.70;0.90;;;;;;;8.30;100.00;100523.56;107124;1258;73540;-51
2023/11/16 04:05:09;;;;;;;1.10;0.80;;;;;;;8.31;100.00;100517.67;105379;1261;65487;-53
2023/11/16 04:07:36;;;;;;;2.70;0.90;;;;;;;8.32;100.00;100523.01;105117;1259;71502;-54
2023/11/16 04:10:04;;;;;;;2.00;0.90;;;;;;;8.33;100.00;100531.95;105073;1262;61752;-54
2023/11/16 04:12:32;;;;;;;0.90;0.80;;;;;;;8.31;100.00;100541.09;105228;1259;60951;-54
2023/11/16 04:15:01;;;;;;;2.80;1.00;;;;;;;8.30;100.00;100543.96;105323;1258;71775;-55
2023/11/16 04:17:28;;;;;;;2.70;1.10;;;;;;;8.30;100.00;100550.75;105286;1259;67064;-51
2023/11/16 04:19:57;;;;;;;1.60;0.90;;;;;;;8.29;100.00;100548.80;105726;1261;73630;-52
2023/11/16 04:22:24;;;;;;;2.90;1.40;;;;;;;8.28;100.00;100546.48;105156;1254;60475;-54
2023/11/16 04:24:52;;;;;;;2.10;1.00;;;;;;;8.28;100.00;100541.51;105205;1253;60096;-54
2023/11/16 04:27:20;;;;;;;1.10;0.80;;;;;;;8.27;100.00;100539.74;106252;1254;73442;-55
2023/11/16 04:29:48;;;;;;;1.10;0.70;;;;;;;8.27;100.00;100538.66;105687;1260;65545;-54
2023/11/16 04:32:16;;;;;;;1.90;0.80;;;;;;;8.26;100.00;100540.83;105111;1259;71733;-51
2023/11/16 04:34:44;;;;;;;1.60;0.60;;;;;;;8.26;100.00;100539.60;105074;1256;60058;-53
2023/11/16 04:37:11;;;;;;;2.00;0.70;;;;;;;8.25;100.00;100543.91;104841;1259;59555;-55
2023/11/16 04:39:39;;;;;;;1.60;0.60;;;;;;;8.24;100.00;100543.94;104856;1259;76194;-53
2023/11/16 04:42:08;;;;;;;1.20;0.80;;;;;;;8.24;100.00;100544.66;105311;1259;65861;-57
2023/11/16 04:44:35;;;;;;;1.00;0.80;;;;;;;8.23;100.00;100548.43;105249;1262;72728;-52
2023/11/16 04:47:05;;;;;;;0.70;0.60;;;;;;;8.22;100.00;100546.84;105344;1256;59928;-54
2023/11/16 04:49:33;;;;;;;1.00;0.50;;;;;;;8.18;100.00;100550.69;105531;1255;60060;-54
2023/11/16 04:52:01;;;;;;;0.50;0.50;;;;;;;8.15;100.00;100549.19;105546;1253;71889;-52
2023/11/16 04:54:29;;;;;;;0.60;0.50;;;;;;;8.13;100.00;100551.91;107006;1258;66926;-56
2023/11/16 04:56:57;;;;;;;1.10;0.40;;;;;;;8.10;100.00;100548.77;105694;1258;71488;-53
2023/11/16 04:59:24;;;;;;;0.40;0.30;;;;;;;8.05;100.00;100546.23;104946;1259;62496;-54
2023/11/16 05:01:52;;;;;;;2.50;0.40;;;;;;;7.99;100.00;100541.73;105124;1253;60494;-54
2023/11/16 05:04:19;;;;;;;0.40;0.40;;;;;;;7.93;100.00;100536.86;105357;1259;73130;-55
2023/11/16 05:06:47;;;;;;;1.00;0.40;;;;;;;7.88;100.00;100532.90;105315;1254;67012;-55
2023/11/16 05:09:15;;;;;;;1.00;0.30;;;;;;;7.84;100.00;100531.73;105315;1258;72468;-52
2023/11/16 05:11:42;;;;;;;1.20;0.50;;;;;;;7.80;100.00;100534.71;105522;1254;60756;-52
2023/11/16 05:14:09;;;;;;;0.30;0.20;;;;;;;7.75;100.00;100530.17;105170;1255;60062;-54
2023/11/16 05:16:37;;;;;;;1.40;0.30;;;;;;;7.71;100.00;100526.70;104937;1254;73073;-56
2023/11/16 05:19:04;;;;;;;0.30;0.30;;;;;;;7.68;100.00;100522.13;104915;1260;65118;-56
2023/11/16 05:21:32;;;;;;;2.70;0.30;;;;;;;7.64;100.00;100519.02;105007;1254;71970;-58
2023/11/16 05:23:59;;;;;;;0.30;0.20;;;;;;;7.59;100.00;100520.91;105508;1255;62763;-57
2023/11/16 05:26:27;;;;;;;0.80;0.20;;;;;;;7.54;100.00;100518.91;105103;1259;59653;-56
2023/11/16 05:28:55;;;;;;;0.60;0.30;;;;;;;7.50;100.00;100520.23;104659;1254;73829;-56
2023/11/16 05:31:24;;;;;;;0.40;0.20;;;;;;;7.47;100.00;100522.65;105421;1259;66549;-58
2023/11/16 05:33:53;;;;;;;2.80;0.20;;;;;;;7.43;100.00;100517.72;105724;1254;72923;-58
2023/11/16 05:36:21;;;;;;;0.30;0.20;;;;;;;7.40;100.00;100523.69;104709;1260;60468;-56
2023/11/16 05:38:49;;;;;;;1.00;0.20;;;;;;;7.35;100.00;100518.98;104847;1259;59738;-55
2023/11/16 05:41:18;;;;;;;0.10;0.10;;;;;;;7.31;100.00;100517.84;105941;1259;75181;-57
2023/11/16 05:43:47;;;;;;;0.90;0.10;;;;;;;7.28;100.00;100518.45;105019;1260;67460;-58
2023/11/16 05:46:14;;;;;;;0.30;0.10;;;;;;;7.23;100.00;100515.48;105248;1259;72691;-55
2023/11/16 05:48:42;;;;;;;0.30;0.20;;;;;;;7.21;100.00;100514.67;105896;1259;61114;-56
2023/11/16 05:51:10;;;;;;;0.20;0.10;;;;;;;7.21;100.00;100507.36;105341;1259;60439;-57
2023/11/16 05:53:38;;;;;;;0.20;0.20;;;;;;;7.21;100.00;100506.65;105533;1256;74312;-57
2023/11/16 05:56:06;;;;;;;0.20;0.20;;;;;;;7.20;100.00;100505.94;105214;1261;65711;-56
2023/11/16 05:58:33;;;;;;;0.30;0.10;;;;;;;7.19;100.00;100506.13;105393;1266;73869;-59
2023/11/16 06:01:00;;;;;;;0.30;0.20;;;;;;;7.16;100.00;100495.66;105208;1261;60547;-60
2023/11/16 06:03:29;;;;;;;0.20;0.20;;;;;;;7.12;100.00;100495.40;105357;1258;60477;-56
2023/11/16 06:05:57;;;;;;;0.20;0.20;;;;;;;7.09;100.00;100492.79;105313;1255;73159;-57
2023/11/16 06:08:25;;;;;;;0.20;0.10;;;;;;;7.05;100.00;100486.48;105222;1260;64799;-58
2023/11/16 06:10:52;;;;;;;0.70;0.20;;;;;;;7.03;100.00;100482.77;105312;1259;72067;-52
2023/11/16 06:13:22;;;;;;;0.60;0.20;;;;;;;7.00;100.00;100479.77;105339;1258;61032;-56
2023/11/16 06:15:50;;;;;;;0.50;0.20;;;;;;;6.98;100.00;100480.91;108895;1254;60281;-58
2023/11/16 06:18:17;;;;;;;2.40;0.10;;;;;;;6.95;100.00;100475.10;107416;1260;73819;-58
2023/11/16 06:20:45;;;;;;;0.20;0.20;;;;;;;6.94;100.00;100468.88;105456;1258;65665;-56
2023/11/16 06:23:13;;;;;;;0.20;0.20;;;;;;;6.93;100.00;100471.74;105023;1258;72799;-57
2023/11/16 06:25:40;;;;;;;1.20;0.20;;;;;;;6.91;100.00;100469.64;104854;1260;61755;-57
2023/11/16 06:28:08;;;;;;;1.00;0.20;;;;;;;6.92;100.00;100468.55;105107;1258;60443;-57
2023/11/16 06:30:36;;;;;;;0.20;0.20;;;;;;;6.93;100.00;100470.85;105044;1258;73892;-54
2023/11/16 06:33:04;;;;;;;0.30;0.20;;;;;;;6.94;100.00;100466.38;108835;1253;65789;-59
2023/11/16 06:35:31;;;;;;;0.20;0.20;;;;;;;6.94;100.00;100469.39;109037;1253;71829;-56
2023/11/16 06:37:59;;;;;;;0.10;0.10;;;;;;;6.97;100.00;100470.08;108943;1258;59113;-55
2023/11/16 06:40:26;;;;;;;0.20;0.10;;;;;;;6.97;100.00;100465.42;108717;1254;58809;-57
2023/11/16 06:42:54;;;;;;;0.10;0.10;;;;;;;6.96;100.00;100466.15;108739;1254;73936;-57
2023/11/16 06:45:24;;;;;;;1.50;0.10;;;;;;;6.94;100.00;100465.48;108965;1254;65931;-57
2023/11/16 06:47:51;;;;;;;0.10;0.10;;;;;;;6.89;100.00;100466.30;108743;1254;73170;-55
2023/11/16 06:50:19;;;;;;;0.10;0.10;;;;;;;6.87;100.00;100465.64;108908;1254;61637;-57
2023/11/16 06:52:47;;;;;;;0.30;0.10;;;;;;;6.85;100.00;100464.61;108849;1254;58968;-55
2023/11/16 06:55:18;;;;;;;0.30;0.20;;;;;;;6.84;100.00;100465.68;108905;1254;72625;-56
2023/11/16 06:57:46;;;;;;;0.20;0.10;;;;;;;6.83;100.00;100469.63;104883;1258;65673;-58
2023/11/16 07:00:21;;;;;;;0.30;0.20;;;;;;;6.84;100.00;100476.40;104372;1257;71581;-55
2023/11/16 07:02:49;;;;;;;0.10;0.10;;;;;;;6.84;100.00;100486.91;104795;1256;61765;-57
2023/11/16 07:05:16;;;;;;;0.00;0.00;;;;;;;6.80;100.00;100481.11;105073;1260;60339;-58
2023/11/16 07:07:45;;;;;;;0.90;0.10;;;;;;;6.73;100.00;100478.78;105119;1261;72672;-57
2023/11/16 07:10:15;;;;;;;0.40;0.10;;;;;;;6.62;100.00;100478.29;105421;1259;67412;-58
2023/11/16 07:12:43;;;;;;;1.80;0.10;;;;;;;6.56;100.00;100472.01;105401;1254;71872;-59
2023/11/16 07:15:14;;;;;;;1.10;0.10;;;;;;;6.53;100.00;100468.15;105784;1258;61400;-59
2023/11/16 07:17:43;;;;;;;0.10;0.10;;;;;;;6.49;100.00;100463.94;105574;1254;60664;-59
2023/11/16 07:20:13;;;;;;;0.20;0.10;;;;;;;6.47;100.00;100463.60;105568;1259;76098;-58
2023/11/16 07:22:41;;;;;;;0.50;0.10;;;;;;;6.45;100.00;100456.17;105280;1258;66765;-56
2023/11/16 07:25:09;;;;;;;0.30;0.10;;;;;;;6.46;100.00;100455.45;105200;1258;73768;-56
2023/11/16 07:27:39;;;;;;;1.60;0.10;;;;;;;6.44;100.00;100456.02;105202;1254;60553;-55
2023/11/16 07:30:08;;;;;;;0.20;0.10;;;;;;;6.43;100.00;100460.50;104743;1257;62152;-56
2023/11/16 07:32:36;;;;;;;0.20;0.10;;;;;;;6.41;100.00;100459.81;105384;1260;73969;-56
2023/11/16 07:35:14;;;;;;;0.10;0.10;;;;;;;6.38;100.00;100466.48;104717;1257;65768;-56
2023/11/16 07:37:46;;;;;;;0.30;0.20;;;;;;;6.32;100.00;100474.08;104889;1254;72721;-57
2023/11/16 07:40:15;;;;;;;0.10;0.10;;;;;;;6.29;100.00;100472.73;105266;1258;60712;-55
2023/11/16 07:42:44;;;;;;;0.20;0.10;;;;;;;6.24;100.00;100461.58;105083;1254;60426;-56
2023/11/16 07:45:12;;;;;;;1.20;0.00;;;;;;;6.19;100.00;100458.33;105077;1257;73771;-57
2023/11/16 07:47:43;;;;;;;0.20;0.10;;;;;;;6.13;100.00;100461.45;105001;1254;65784;-58
2023/11/16 07:50:12;;;;;;;0.10;0.10;;;;;;;6.08;100.00;100459.93;104829;1258;71452;-58
2023/11/16 07:52:45;;;;;;;0.30;0.10;;;;;;;6.06;100.00;100463.89;105248;1255;60493;-56
2023/11/16 07:55:16;;;;;;;1.90;0.10;;;;;;;6.05;100.00;100466.39;105195;1257;60725;-56
2023/11/16 07:57:48;;;;;;;0.10;0.10;;;;;;;6.06;100.00;100469.23;105220;1254;72390;-56
2023/11/16 08:00:30;;;;;;;0.10;0.10;;;;;;;6.09;100.00;100472.40;105365;1253;65793;-56
2023/11/16 08:05:46;;;;;;;0.20;0.20;;;;;;;6.09;100.00;100490.56;105286;1254;60896;-54
2023/11/16 08:08:14;;;;;;;0.10;0.10;;;;;;;6.08;100.00;100479.36;105087;1257;61095;-58
2023/11/16 08:10:42;;;;;;;0.10;0.10;;;;;;;6.07;100.00;100478.83;105678;1254;72660;-57
2023/11/16 08:13:11;;;;;;;0.10;0.10;;;;;;;6.06;100.00;100483.66;104920;1254;64699;-57
2023/11/16 08:15:41;;;;;;;0.10;0.10;;;;;;;6.01;100.00;100482.52;105437;1254;71513;-57
2023/11/16 08:18:12;;;;;;;0.00;0.00;;;;;;;5.95;100.00;100485.84;105660;1254;60527;-56
2023/11/16 08:20:39;;;;;;;0.10;0.00;;;;;;;5.87;100.00;100482.75;106865;1254;59220;-56
2023/11/16 08:23:09;;;;;;;0.10;0.00;;;;;;;5.82;100.00;100480.52;104509;1260;72572;-58
2023/11/16 08:25:38;;;;;;;1.60;0.10;;;;;;;5.77;100.00;100480.25;105674;1254;67244;-56
2023/11/16 08:28:08;;;;;;;1.70;0.20;;;;;;;5.72;100.00;100477.29;107945;1254;71448;-57
2023/11/16 08:30:37;;;;;;;0.20;0.10;;;;;;;5.69;100.00;100469.52;105247;1255;60637;-59
2023/11/16 08:33:08;;;;;;;0.10;0.10;;;;;;;5.66;100.00;100472.23;105740;1254;60547;-54
2023/11/16 08:35:38;;;;;;;1.30;0.10;;;;;;;5.65;100.00;100468.15;105739;1254;73969;-55
2023/11/16 08:38:07;;;;;;;0.10;0.10;;;;;;;5.63;100.00;100468.55;105318;1261;66746;-55
2023/11/16 08:40:36;;;;;;;0.00;0.00;;;;;;;5.60;100.00;100472.00;105716;1254;72812;-56
2023/11/16 08:43:10;;;;;;;0.00;0.00;;;;;;;5.57;100.00;100464.38;105460;1258;60561;-56
2023/11/16 08:45:39;;;;;;;0.10;0.10;;;;;;;5.55;100.00;100465.48;105747;1254;60398;-58
2023/11/16 08:48:08;;;;;;;0.20;0.10;;;;;;;5.57;100.00;100459.21;105655;1257;72631;-54
2023/11/16 08:50:37;;;;;;;0.10;0.10;;;;;;;5.59;100.00;100461.15;105525;1266;66478;-54
2023/11/16 08:53:07;;;;;;;0.20;0.10;;;;;;;5.59;100.00;100460.79;105388;1254;74704;-55
2023/11/16 08:55:35;;;;;;;0.10;0.10;;;;;;;5.58;100.00;100461.86;105282;1253;60657;-54
2023/11/16 08:58:02;;;;;;;0.30;0.10;;;;;;;5.58;100.00;100459.20;105121;1254;60554;-56
2023/11/16 09:00:33;;;;;;;0.10;0.10;;;;;;;5.58;100.00;100457.08;105243;1255;72680;-57
2023/11/16 09:03:02;;;;;;;1.10;0.10;;;;;;;5.55;100.00;100464.40;105302;1254;65769;-58
2023/11/16 09:05:35;;;;;;;0.80;0.20;;;;;;;5.52;100.00;100457.52;105248;1260;73052;-56
2023/11/16 09:08:03;;;;;;;0.60;0.30;;;;;;;5.49;100.00;100465.04;106881;1254;61470;-56
2023/11/16 09:10:31;;;;;;;0.20;0.10;;;;;;;5.47;100.00;100461.34;105360;1257;60620;-57
2023/11/16 09:13:00;;;;;;;0.20;0.10;;;;;;;5.43;100.00;100461.23;106260;1257;72634;-56
2023/11/16 09:15:28;;;;;;;0.40;0.10;;;;;;;5.39;100.00;100458.44;108982;1253;66534;-58
2023/11/16 09:17:58;;;;;;;1.50;0.10;;;;;;;5.36;100.00;100449.95;109029;1253;71462;-57
2023/11/16 09:20:28;;;;;;;0.10;0.10;;;;;;;5.33;100.00;100455.52;108918;1253;59322;-58
2023/11/16 09:23:00;;;;;;;0.20;0.10;;;;;;;5.31;100.00;100451.27;108643;1254;59479;-55
2023/11/16 09:25:29;;;;;;;0.10;0.10;;;;;;;5.31;100.00;100448.24;108898;1253;72237;-57
2023/11/16 09:28:00;;;;;;;0.30;0.10;;;;;;;5.30;100.00;100447.37;108914;1253;66288;-56
2023/11/16 09:30:28;;;;;;;0.20;0.10;;;;;;;5.24;100.00;100437.68;108922;1254;71427;-57
2023/11/16 09:32:57;;;;;;;3.10;0.10;;;;;;;5.21;100.00;100433.45;108996;1257;60964;-59
2023/11/16 09:35:25;;;;;;;4.80;0.10;;;;;;;5.20;100.00;100431.88;108952;1253;59273;-58
2023/11/16 09:37:53;;;;;;;0.20;0.10;;;;;;;5.20;100.00;100425.09;109082;1253;72667;-57
2023/11/16 09:40:24;;;;;;;1.40;0.10;;;;;;;5.23;100.00;100428.98;109000;1254;67464;-57
2023/11/16 09:42:58;;;;;;;0.20;0.10;;;;;;;5.27;100.00;100435.69;105924;1257;71480;-57
2023/11/16 09:45:31;;;;;;;0.10;0.10;;;;;;;5.29;100.00;100437.95;108872;1253;59017;-56
2023/11/16 09:48:12;;;;;;;0.30;0.10;;;;;;;5.31;100.00;100441.48;108624;1253;58852;-57
2023/11/16 09:50:42;;;;;;;0.20;0.10;;;;;;;5.36;100.00;100450.84;105231;1254;73836;-57
2023/11/16 09:53:14;;;;;;;0.10;0.10;;;;;;;5.37;100.00;100445.30;105470;1260;66808;-57
2023/11/16 09:55:49;;;;;;;0.30;0.20;;;;;;;5.34;100.00;100446.98;105468;1258;72749;-53
2023/11/16 09:58:21;;;;;;;0.10;0.10;;;;;;;5.30;100.00;100447.90;105388;1259;60508;-58
2023/11/16 10:00:55;;;;;;;0.00;0.00;;;;;;;5.23;100.00;100438.41;105405;1260;60369;-56
2023/11/16 10:03:30;;;;;;;0.00;0.00;;;;;;;5.16;100.00;100439.95;107936;1254;73892;-54
2023/11/16 10:05:59;;;;;;;0.20;0.10;;;;;;;5.08;100.00;100430.48;105505;1254;67132;-56
2023/11/16 10:08:28;;;;;;;0.50;0.10;;;;;;;5.04;100.00;100422.33;105561;1258;72859;-58
2023/11/16 10:10:58;;;;;;;0.10;0.10;;;;;;;5.02;100.00;100420.05;105397;1254;60416;-54
2023/11/16 10:13:26;;;;;;;0.20;0.10;;;;;;;5.03;100.00;100415.42;106266;1254;60524;-52
2023/11/16 10:15:54;;;;;;;1.00;0.00;;;;;;;5.02;100.00;100409.73;105455;1253;74271;-51
2023/11/16 10:18:21;;;;;;;0.60;0.10;;;;;;;5.01;100.00;100410.84;109027;1254;65199;-55
2023/11/16 10:20:49;;;;;;;0.10;0.10;;;;;;;5.01;100.00;100406.39;106457;1254;72063;-53
2023/11/16 10:23:23;;;;;;;0.30;0.10;;;;;;;5.00;100.00;100409.61;105306;1255;60543;-57
2023/11/16 10:25:51;;;;;;;0.10;0.00;;;;;;;4.98;100.00;100410.16;105362;1253;60443;-52
2023/11/16 10:28:19;;;;;;;0.40;0.10;;;;;;;4.97;100.00;100411.07;105416;1255;72646;-50
2023/11/16 10:30:50;;;;;;;0.00;0.00;;;;;;;4.92;100.00;100411.48;106457;1258;67786;-55
2023/11/16 10:33:19;;;;;;;0.10;0.10;;;;;;;4.86;100.00;100412.29;106067;1254;73643;-53
2023/11/16 10:35:48;;;;;;;0.20;0.10;;;;;;;4.81;100.00;100409.52;105414;1254;60573;-52
2023/11/16 10:38:16;;;;;;;0.20;0.10;;;;;;;4.78;100.00;100409.91;105274;1254;60509;-53
2023/11/16 10:40:54;;;;;;;0.20;0.10;;;;;;;4.76;100.00;100409.06;105195;1259;74045;-54
2023/11/16 10:43:26;;;;;;;0.20;0.10;;;;;;;4.76;100.00;100417.25;105227;1261;66016;-55
2023/11/16 10:45:59;;;;;;;0.30;0.10;;;;;;;4.78;100.00;100419.34;107143;1254;72306;-53
2023/11/16 10:48:28;;;;;;;0.10;0.10;;;;;;;4.79;100.00;100420.74;105384;1259;61334;-57
2023/11/16 10:50:58;;;;;;;3.60;0.50;;;;;;;4.78;100.00;100418.80;106014;1254;60908;-58
2023/11/16 10:53:32;;;;;;;0.20;0.10;;;;;;;4.76;100.00;100421.33;105587;1258;74221;-55
2023/11/16 10:56:01;;;;;;;0.10;0.10;;;;;;;4.70;100.00;100421.23;105415;1259;66308;-55
2023/11/16 10:58:29;;;;;;;1.30;0.20;;;;;;;4.65;100.00;100417.75;105787;1254;71507;-55
2023/11/16 11:00:57;;;;;;;0.40;0.20;;;;;;;4.61;100.00;100412.48;105534;1258;60474;-58
2023/11/16 11:03:25;;;;;;;0.20;0.20;;;;;;;4.58;100.00;100415.73;105940;1258;60857;-56
2023/11/16 11:05:52;;;;;;;0.90;0.10;;;;;;;4.56;100.00;100412.73;106896;1254;73874;-56
2023/11/16 11:08:21;;;;;;;0.10;0.10;;;;;;;4.55;100.00;100405.80;105339;1258;66995;-59
2023/11/16 11:10:52;;;;;;;0.10;0.10;;;;;;;4.56;100.00;100409.70;105665;1259;71458;-53
2023/11/16 11:13:26;;;;;;;0.20;0.10;;;;;;;4.57;100.00;100407.55;105335;1254;61706;-56
2023/11/16 11:16:02;;;;;;;0.50;0.10;;;;;;;4.56;100.00;100409.86;105389;1254;60506;-58
2023/11/16 11:18:31;;;;;;;0.20;0.10;;;;;;;4.56;100.00;100411.12;105553;1257;73871;-58
2023/11/16 11:21:09;;;;;;;0.10;0.10;;;;;;;4.59;100.00;100405.56;105459;1254;66183;-59
2023/11/16 11:23:40;;;;;;;0.30;0.20;;;;;;;4.62;100.00;100416.55;105357;1254;72787;-58
2023/11/16 11:26:07;;;;;;;0.70;0.40;;;;;;;4.66;100.00;100418.09;105742;1254;60630;-56
2023/11/16 11:28:38;;;;;;;0.60;0.30;;;;;;;4.72;100.00;100418.54;105380;1253;60508;-57